Aviation Digital Data Service (ADDS)

Output produced by METARs form (0103 UTC 06 December 2019)
found at http://www.aviationweather.gov/metar/data/
 
METAR text: KAPC 060054Z 09009KT 10SM SCT040 OVC050 14/11 A3003 RMK AO2 RAB28E40 SLP159 P0000 T01390106
Conditions at: KAPC (NAPA , CA, US) observed 0054 UTC 06 December 2019
Temperature: 13.9°C (57°F)
Dewpoint: 10.6°C (51°F) [RH = 80%]
Pressure (altimeter): 30.03 inches Hg (1017.0 mb)
[Sea-level pressure: 1015.9 mb]
Winds: from the E (90 degrees) at 10 MPH (9 knots; 4.6 m/s)
Visibility: 10 or more miles (16+ km)
Ceiling: 5000 feet AGL
Clouds: scattered clouds at 4000 feet AGL
overcast cloud deck at 5000 feet AGL
Weather: no significant weather observed at this time

METAR text: KAPC 052354Z 08008KT 10SM BKN038 OVC050 14/11 A3003 RMK AO2 SLP161 T01390106 10150 20139 56008
Conditions at: KAPC (NAPA , CA, US) observed 2354 UTC 05 December 2019
Temperature: 13.9°C (57°F)
Dewpoint: 10.6°C (51°F) [RH = 80%]
Pressure (altimeter): 30.03 inches Hg (1017.0 mb)
[Sea-level pressure: 1016.1 mb]
Winds: from the E (80 degrees) at 9 MPH (8 knots; 4.1 m/s)
Visibility: 10 or more miles (16+ km)
Ceiling: 3800 feet AGL
Clouds: broken clouds at 3800 feet AGL
overcast cloud deck at 5000 feet AGL
Weather: no significant weather observed at this time

METAR text: KAPC 052254Z 09013KT 10SM OVC048 14/11 A3004 RMK AO2 SLP162 T01390106
Conditions at: KAPC (NAPA , CA, US) observed 2254 UTC 05 December 2019
Temperature: 13.9°C (57°F)
Dewpoint: 10.6°C (51°F) [RH = 80%]
Pressure (altimeter): 30.04 inches Hg (1017.4 mb)
[Sea-level pressure: 1016.2 mb]
Winds: from the E (90 degrees) at 15 MPH (13 knots; 6.7 m/s)
Visibility: 10 or more miles (16+ km)
Ceiling: 4800 feet AGL
Clouds: overcast cloud deck at 4800 feet AGL
Weather: no significant weather observed at this time

METAR text: KAPC 052154Z 09010KT 10SM OVC048 14/11 A3005 RMK AO2 SLP165 T01440111
Conditions at: KAPC (NAPA , CA, US) observed 2154 UTC 05 December 2019
Temperature: 14.4°C (58°F)
Dewpoint: 11.1°C (52°F) [RH = 81%]
Pressure (altimeter): 30.05 inches Hg (1017.7 mb)
[Sea-level pressure: 1016.5 mb]
Winds: from the E (90 degrees) at 12 MPH (10 knots; 5.1 m/s)
Visibility: 10 or more miles (16+ km)
Ceiling: 4800 feet AGL
Clouds: overcast cloud deck at 4800 feet AGL
Weather: no significant weather observed at this time

METAR text: KAPC 052054Z 08010KT 10SM FEW038 15/11 A3006 RMK AO2 SLP170 T01500111 58011
Conditions at: KAPC (NAPA , CA, US) observed 2054 UTC 05 December 2019
Temperature: 15.0°C (59°F)
Dewpoint: 11.1°C (52°F) [RH = 77%]
Pressure (altimeter): 30.06 inches Hg (1018.0 mb)
[Sea-level pressure: 1017.0 mb]
Winds: from the E (80 degrees) at 12 MPH (10 knots; 5.1 m/s)
Visibility: 10 or more miles (16+ km)
Ceiling: at least 12,000 feet AGL
Clouds: few clouds at 3800 feet AGL
Weather: no significant weather observed at this time

METAR text: KAPC 051954Z 09010KT 10SM FEW029 OVC035 14/11 A3008 RMK AO2 SLP177 T01440111
Conditions at: KAPC (NAPA , CA, US) observed 1954 UTC 05 December 2019
Temperature: 14.4°C (58°F)
Dewpoint: 11.1°C (52°F) [RH = 81%]
Pressure (altimeter): 30.08 inches Hg (1018.7 mb)
[Sea-level pressure: 1017.7 mb]
Winds: from the E (90 degrees) at 12 MPH (10 knots; 5.1 m/s)
Visibility: 10 or more miles (16+ km)
Ceiling: 3500 feet AGL
Clouds: few clouds at 2900 feet AGL
overcast cloud deck at 3500 feet AGL
Weather: no significant weather observed at this time

METAR text: KAPC 051854Z 09010KT 9SM SCT031 14/12 A3010 RMK AO2 SLP183 T01440117
Conditions at: KAPC (NAPA , CA, US) observed 1854 UTC 05 December 2019
Temperature: 14.4°C (58°F)
Dewpoint: 11.7°C (53°F) [RH = 84%]
Pressure (altimeter): 30.10 inches Hg (1019.4 mb)
[Sea-level pressure: 1018.3 mb]
Winds: from the E (90 degrees) at 12 MPH (10 knots; 5.1 m/s)
Visibility: 9 miles (14 km)
Ceiling: at least 12,000 feet AGL
Clouds: scattered clouds at 3100 feet AGL
Weather: no significant weather observed at this time

METAR text: KAPC 051757Z 07009KT 7SM FEW021 SCT041 14/12 A3009 RMK AO2 T01390117
Conditions at: KAPC (NAPA , CA, US) observed 1757 UTC 05 December 2019
Temperature: 13.9°C (57°F)
Dewpoint: 11.7°C (53°F) [RH = 87%]
Pressure (altimeter): 30.09 inches Hg (1019.0 mb)
Winds: from the ENE (70 degrees) at 10 MPH (9 knots; 4.6 m/s)
Visibility: 7 miles (11 km)
Ceiling: at least 12,000 feet AGL
Clouds: few clouds at 2100 feet AGL
scattered clouds at 4100 feet AGL
Weather: no significant weather observed at this time

METAR text: KAPC 051754Z 09009KT 7SM BR BKN021 14/12 A3009 RMK AO2 SLP181 60000 T01390117 10139 20117 50016
Conditions at: KAPC (NAPA , CA, US) observed 1754 UTC 05 December 2019
Temperature: 13.9°C (57°F)
Dewpoint: 11.7°C (53°F) [RH = 87%]
Pressure (altimeter): 30.09 inches Hg (1019.0 mb)
[Sea-level pressure: 1018.1 mb]
Winds: from the E (90 degrees) at 10 MPH (9 knots; 4.6 m/s)
Visibility: 7 miles (11 km)
Ceiling: 2100 feet AGL
Clouds: broken clouds at 2100 feet AGL
Weather: BR  (mist)

METAR text: KAPC 051710Z 09006KT 8SM BR SCT013 OVC019 14/12 A3009 RMK AO2 T01390117
Conditions at: KAPC (NAPA , CA, US) observed 1710 UTC 05 December 2019
Temperature: 13.9°C (57°F)
Dewpoint: 11.7°C (53°F) [RH = 87%]
Pressure (altimeter): 30.09 inches Hg (1019.0 mb)
Winds: from the E (90 degrees) at 7 MPH (6 knots; 3.1 m/s)
Visibility: 8 miles (13 km)
Ceiling: 1900 feet AGL
Clouds: scattered clouds at 1300 feet AGL
overcast cloud deck at 1900 feet AGL
Weather: BR  (mist)

METAR text: KAPC 051701Z 09005KT 8SM BR BKN011 OVC019 13/12 A3009 RMK AO2 T01330117
Conditions at: KAPC (NAPA , CA, US) observed 1701 UTC 05 December 2019
Temperature: 13.3°C (56°F)
Dewpoint: 11.7°C (53°F) [RH = 90%]
Pressure (altimeter): 30.09 inches Hg (1019.0 mb)
Winds: from the E (90 degrees) at 6 MPH (5 knots; 2.6 m/s)
Visibility: 8 miles (13 km)
Ceiling: 1100 feet AGL
Clouds: broken clouds at 1100 feet AGL
overcast cloud deck at 1900 feet AGL
Weather: BR  (mist)

METAR text: KAPC 051654Z 10005KT 6SM BR BKN009 OVC031 13/12 A3009 RMK AO2 RAE1556 SLP182 P0000 T01330117
Conditions at: KAPC (NAPA , CA, US) observed 1654 UTC 05 December 2019
Temperature: 13.3°C (56°F)
Dewpoint: 11.7°C (53°F) [RH = 90%]
Pressure (altimeter): 30.09 inches Hg (1019.0 mb)
[Sea-level pressure: 1018.2 mb]
Winds: from the E (100 degrees) at 6 MPH (5 knots; 2.6 m/s)
Visibility: 6 miles (10 km)
Ceiling: 900 feet AGL
Clouds: broken clouds at 900 feet AGL
overcast cloud deck at 3100 feet AGL
Weather: BR  (mist)

METAR text: KAPC 051554Z COR 15003KT 6SM BR BKN0013 OVC020 13/11 A3007 RMK AO2 RAB54 SLP175 P0000 T01280111
Conditions at: KAPC (NAPA , CA, US) observed 1554 UTC 05 December 2019
Temperature: 12.8°C (55°F)
Dewpoint: 11.1°C (52°F) [RH = 89%]
Pressure (altimeter): 30.07 inches Hg (1018.4 mb)
[Sea-level pressure: 1017.5 mb]
Winds: from the SSE (150 degrees) at 3 MPH (3 knots; 1.5 m/s)
Visibility: 6 miles (10 km)
Ceiling: 2000 feet AGL
Clouds: overcast cloud deck at 2000 feet AGL
Weather: BR  (mist)

METAR text: KAPC 051454Z 08006KT 8SM BKN009 OVC031 12/11 A3005 RMK AO2 CIG 008V013 SLP165 T01220106 51012
Conditions at: KAPC (NAPA , CA, US) observed 1454 UTC 05 December 2019
Temperature: 12.2°C (54°F)
Dewpoint: 10.6°C (51°F) [RH = 90%]
Pressure (altimeter): 30.05 inches Hg (1017.7 mb)
[Sea-level pressure: 1016.5 mb]
Winds: from the E (80 degrees) at 7 MPH (6 knots; 3.1 m/s)
Visibility: 8 miles (13 km)
Ceiling: 900 feet AGL
Clouds: broken clouds at 900 feet AGL
overcast cloud deck at 3100 feet AGL
Weather: no significant weather observed at this time

METAR text: KAPC 051414Z AUTO 09008KT 8SM BKN009 BKN014 12/11 A3004 RMK AO2 T01220106
Conditions at: KAPC (NAPA , CA, US) observed 1414 UTC 05 December 2019
Temperature: 12.2°C (54°F)
Dewpoint: 10.6°C (51°F) [RH = 90%]
Pressure (altimeter): 30.04 inches Hg (1017.4 mb)
Winds: from the E (90 degrees) at 9 MPH (8 knots; 4.1 m/s)
Visibility: 8 miles (13 km)
Ceiling: 900 feet AGL
Clouds: broken clouds at 900 feet AGL
broken clouds at 1400 feet AGL
Weather: automated observation with no human augmentation;
there may or may not be significant weather present at this time

METAR text: KAPC 051354Z AUTO 07006KT 8SM FEW008 12/11 A3003 RMK AO2 SLP161 T01220106
Conditions at: KAPC (NAPA , CA, US) observed 1354 UTC 05 December 2019
Temperature: 12.2°C (54°F)
Dewpoint: 10.6°C (51°F) [RH = 90%]
Pressure (altimeter): 30.03 inches Hg (1017.0 mb)
[Sea-level pressure: 1016.1 mb]
Winds: from the ENE (70 degrees) at 7 MPH (6 knots; 3.1 m/s)
Visibility: 8 miles (13 km)
Ceiling: at least 12,000 feet AGL
Clouds: few clouds at 800 feet AGL
Weather: automated observation with no human augmentation;
there may or may not be significant weather present at this time

METAR text: KAPC 051349Z AUTO 08006KT 8SM SCT008 12/11 A3003 RMK AO2
Conditions at: KAPC (NAPA , CA, US) observed 1349 UTC 05 December 2019
Temperature: 12.0°C (54°F)
Dewpoint: 11.0°C (52°F) [RH = 94%]
Pressure (altimeter): 30.03 inches Hg (1017.0 mb)
Winds: from the E (80 degrees) at 7 MPH (6 knots; 3.1 m/s)
Visibility: 8 miles (13 km)
Ceiling: at least 12,000 feet AGL
Clouds: scattered clouds at 800 feet AGL
Weather: automated observation with no human augmentation;
there may or may not be significant weather present at this time

METAR text: KAPC 051254Z AUTO 09010KT 6SM BR BKN009 OVC040 12/11 A3001 RMK AO2 SLP154 T01220106
Conditions at: KAPC (NAPA , CA, US) observed 1254 UTC 05 December 2019
Temperature: 12.2°C (54°F)
Dewpoint: 10.6°C (51°F) [RH = 90%]
Pressure (altimeter): 30.01 inches Hg (1016.3 mb)
[Sea-level pressure: 1015.4 mb]
Winds: from the E (90 degrees) at 12 MPH (10 knots; 5.1 m/s)
Visibility: 6 miles (10 km)
Ceiling: 900 feet AGL
Clouds: broken clouds at 900 feet AGL
overcast cloud deck at 4000 feet AGL
Weather: BR  (mist)

METAR text: KAPC 051231Z AUTO 09008KT 8SM BKN009 OVC040 12/11 A3001 RMK AO2 T01220106
Conditions at: KAPC (NAPA , CA, US) observed 1231 UTC 05 December 2019
Temperature: 12.2°C (54°F)
Dewpoint: 10.6°C (51°F) [RH = 90%]
Pressure (altimeter): 30.01 inches Hg (1016.3 mb)
Winds: from the E (90 degrees) at 9 MPH (8 knots; 4.1 m/s)
Visibility: 8 miles (13 km)
Ceiling: 900 feet AGL
Clouds: broken clouds at 900 feet AGL
overcast cloud deck at 4000 feet AGL
Weather: automated observation with no human augmentation;
there may or may not be significant weather present at this time

METAR text: KAPC 051215Z AUTO 08006KT 8SM BKN010 OVC028 12/11 A3002 RMK AO2 T01220106
Conditions at: KAPC (NAPA , CA, US) observed 1215 UTC 05 December 2019
Temperature: 12.2°C (54°F)
Dewpoint: 10.6°C (51°F) [RH = 90%]
Pressure (altimeter): 30.02 inches Hg (1016.7 mb)
Winds: from the E (80 degrees) at 7 MPH (6 knots; 3.1 m/s)
Visibility: 8 miles (13 km)
Ceiling: 1000 feet AGL
Clouds: broken clouds at 1000 feet AGL
overcast cloud deck at 2800 feet AGL
Weather: automated observation with no human augmentation;
there may or may not be significant weather present at this time

METAR text: KAPC 051206Z AUTO 08005KT 8SM SCT009 BKN028 OVC037 13/11 A3002 RMK AO2 T01280111
Conditions at: KAPC (NAPA , CA, US) observed 1206 UTC 05 December 2019
Temperature: 12.8°C (55°F)
Dewpoint: 11.1°C (52°F) [RH = 89%]
Pressure (altimeter): 30.02 inches Hg (1016.7 mb)
Winds: from the E (80 degrees) at 6 MPH (5 knots; 2.6 m/s)
Visibility: 8 miles (13 km)
Ceiling: 2800 feet AGL
Clouds: scattered clouds at 900 feet AGL
broken clouds at 2800 feet AGL
overcast cloud deck at 3700 feet AGL
Weather: automated observation with no human augmentation;
there may or may not be significant weather present at this time

METAR text: KAPC 051154Z AUTO 07005KT 7SM FEW009 SCT029 OVC037 12/11 A3001 RMK AO2 SLP153 60000 70021 T01220111 10128 20122 51008
Conditions at: KAPC (NAPA , CA, US) observed 1154 UTC 05 December 2019
Temperature: 12.2°C (54°F)
Dewpoint: 11.1°C (52°F) [RH = 93%]
Pressure (altimeter): 30.01 inches Hg (1016.3 mb)
[Sea-level pressure: 1015.3 mb]
Winds: from the ENE (70 degrees) at 6 MPH (5 knots; 2.6 m/s)
Visibility: 7 miles (11 km)
Ceiling: 3700 feet AGL
Clouds: few clouds at 900 feet AGL
scattered clouds at 2900 feet AGL
overcast cloud deck at 3700 feet AGL
Weather: automated observation with no human augmentation;
there may or may not be significant weather present at this time

METAR text: KAPC 051119Z AUTO 07006KT 7SM FEW007 SCT024 OVC041 12/11 A3000 RMK AO2 T01220111
Conditions at: KAPC (NAPA , CA, US) observed 1119 UTC 05 December 2019
Temperature: 12.2°C (54°F)
Dewpoint: 11.1°C (52°F) [RH = 93%]
Pressure (altimeter): 30.00 inches Hg (1016.0 mb)
Winds: from the ENE (70 degrees) at 7 MPH (6 knots; 3.1 m/s)
Visibility: 7 miles (11 km)
Ceiling: 4100 feet AGL
Clouds: few clouds at 700 feet AGL
scattered clouds at 2400 feet AGL
overcast cloud deck at 4100 feet AGL
Weather: automated observation with no human augmentation;
there may or may not be significant weather present at this time

METAR text: KAPC 051054Z AUTO 08007KT 7SM FEW007 OVC023 12/11 A3000 RMK AO2 SLP151 T01220111
Conditions at: KAPC (NAPA , CA, US) observed 1054 UTC 05 December 2019
Temperature: 12.2°C (54°F)
Dewpoint: 11.1°C (52°F) [RH = 93%]
Pressure (altimeter): 30.00 inches Hg (1016.0 mb)
[Sea-level pressure: 1015.1 mb]
Winds: from the E (80 degrees) at 8 MPH (7 knots; 3.6 m/s)
Visibility: 7 miles (11 km)
Ceiling: 2300 feet AGL
Clouds: few clouds at 700 feet AGL
overcast cloud deck at 2300 feet AGL
Weather: automated observation with no human augmentation;
there may or may not be significant weather present at this time

METAR text: KAPC 051035Z AUTO 08006KT 8SM FEW007 BKN023 OVC041 12/11 A3000 RMK AO2 T01220111
Conditions at: KAPC (NAPA , CA, US) observed 1035 UTC 05 December 2019
Temperature: 12.2°C (54°F)
Dewpoint: 11.1°C (52°F) [RH = 93%]
Pressure (altimeter): 30.00 inches Hg (1016.0 mb)
Winds: from the E (80 degrees) at 7 MPH (6 knots; 3.1 m/s)
Visibility: 8 miles (13 km)
Ceiling: 2300 feet AGL
Clouds: few clouds at 700 feet AGL
broken clouds at 2300 feet AGL
overcast cloud deck at 4100 feet AGL
Weather: automated observation with no human augmentation;
there may or may not be significant weather present at this time

METAR text: KAPC 050954Z AUTO 08008KT 9SM SCT030 OVC037 12/11 A2999 RMK AO2 SLP147 T01220111
Conditions at: KAPC (NAPA , CA, US) observed 0954 UTC 05 December 2019
Temperature: 12.2°C (54°F)
Dewpoint: 11.1°C (52°F) [RH = 93%]
Pressure (altimeter): 29.99 inches Hg (1015.7 mb)
[Sea-level pressure: 1014.7 mb]
Winds: from the E (80 degrees) at 9 MPH (8 knots; 4.1 m/s)
Visibility: 9 miles (14 km)
Ceiling: 3700 feet AGL
Clouds: scattered clouds at 3000 feet AGL
overcast cloud deck at 3700 feet AGL
Weather: automated observation with no human augmentation;
there may or may not be significant weather present at this time

METAR text: KAPC 050937Z AUTO 08007KT 9SM FEW026 BKN033 OVC041 12/11 A2999 RMK AO2 T01220111
Conditions at: KAPC (NAPA , CA, US) observed 0937 UTC 05 December 2019
Temperature: 12.2°C (54°F)
Dewpoint: 11.1°C (52°F) [RH = 93%]
Pressure (altimeter): 29.99 inches Hg (1015.7 mb)
Winds: from the E (80 degrees) at 8 MPH (7 knots; 3.6 m/s)
Visibility: 9 miles (14 km)
Ceiling: 3300 feet AGL
Clouds: few clouds at 2600 feet AGL
broken clouds at 3300 feet AGL
overcast cloud deck at 4100 feet AGL
Weather: automated observation with no human augmentation;
there may or may not be significant weather present at this time

METAR text: KAPC 050854Z AUTO 08006KT 10SM BKN025 OVC039 13/11 A2998 RMK AO2 SLP144 60000 T01280111 51008
Conditions at: KAPC (NAPA , CA, US) observed 0854 UTC 05 December 2019
Temperature: 12.8°C (55°F)
Dewpoint: 11.1°C (52°F) [RH = 89%]
Pressure (altimeter): 29.98 inches Hg (1015.3 mb)
[Sea-level pressure: 1014.4 mb]
Winds: from the E (80 degrees) at 7 MPH (6 knots; 3.1 m/s)
Visibility: 10 or more miles (16+ km)
Ceiling: 2500 feet AGL
Clouds: broken clouds at 2500 feet AGL
overcast cloud deck at 3900 feet AGL
Weather: automated observation with no human augmentation;
there may or may not be significant weather present at this time

METAR text: KAPC 050829Z AUTO 08007KT 10SM BKN027 OVC039 12/11 A2998 RMK AO2 T01220111
Conditions at: KAPC (NAPA , CA, US) observed 0829 UTC 05 December 2019
Temperature: 12.2°C (54°F)
Dewpoint: 11.1°C (52°F) [RH = 93%]
Pressure (altimeter): 29.98 inches Hg (1015.3 mb)
Winds: from the E (80 degrees) at 8 MPH (7 knots; 3.6 m/s)
Visibility: 10 or more miles (16+ km)
Ceiling: 2700 feet AGL
Clouds: broken clouds at 2700 feet AGL
overcast cloud deck at 3900 feet AGL
Weather: automated observation with no human augmentation;
there may or may not be significant weather present at this time

METAR text: KAPC 050754Z AUTO 08007KT 10SM SCT028 OVC043 12/11 A2998 RMK AO2 RAB23E33 SLP144 P0000 T01220106 401390106
Conditions at: KAPC (NAPA , CA, US) observed 0754 UTC 05 December 2019
Temperature: 12.2°C (54°F)
Dewpoint: 10.6°C (51°F) [RH = 90%]
Pressure (altimeter): 29.98 inches Hg (1015.3 mb)
[Sea-level pressure: 1014.4 mb]
Winds: from the E (80 degrees) at 8 MPH (7 knots; 3.6 m/s)
Visibility: 10 or more miles (16+ km)
Ceiling: 4300 feet AGL
Clouds: scattered clouds at 2800 feet AGL
overcast cloud deck at 4300 feet AGL
Weather: automated observation with no human augmentation;
there may or may not be significant weather present at this time

METAR text: KAPC 050654Z AUTO 10SM OVC029 12/11 A2998 RMK AO2 SLP142 T01220106
Conditions at: KAPC (NAPA , CA, US) observed 0654 UTC 05 December 2019
Temperature: 12.2°C (54°F)
Dewpoint: 10.6°C (51°F) [RH = 90%]
Pressure (altimeter): 29.98 inches Hg (1015.3 mb)
[Sea-level pressure: 1014.2 mb]
Winds: missing
Visibility: 10 or more miles (16+ km)
Ceiling: 2900 feet AGL
Clouds: overcast cloud deck at 2900 feet AGL
Weather: automated observation with no human augmentation;
there may or may not be significant weather present at this time

METAR text: KAPC 050636Z AUTO 07003KT 10SM BKN029 OVC049 12/11 A2998 RMK AO2 T01220111
Conditions at: KAPC (NAPA , CA, US) observed 0636 UTC 05 December 2019
Temperature: 12.2°C (54°F)
Dewpoint: 11.1°C (52°F) [RH = 93%]
Pressure (altimeter): 29.98 inches Hg (1015.3 mb)
Winds: from the ENE (70 degrees) at 3 MPH (3 knots; 1.5 m/s)
Visibility: 10 or more miles (16+ km)
Ceiling: 2900 feet AGL
Clouds: broken clouds at 2900 feet AGL
overcast cloud deck at 4900 feet AGL
Weather: automated observation with no human augmentation;
there may or may not be significant weather present at this time

METAR text: KAPC 050554Z AUTO 05006KT 10SM FEW028 OVC040 12/11 A2996 RMK AO2 SLP137 T01220111 10133 20111 53012
Conditions at: KAPC (NAPA , CA, US) observed 0554 UTC 05 December 2019
Temperature: 12.2°C (54°F)
Dewpoint: 11.1°C (52°F) [RH = 93%]
Pressure (altimeter): 29.96 inches Hg (1014.6 mb)
[Sea-level pressure: 1013.7 mb]
Winds: from the NE (50 degrees) at 7 MPH (6 knots; 3.1 m/s)
Visibility: 10 or more miles (16+ km)
Ceiling: 4000 feet AGL
Clouds: few clouds at 2800 feet AGL
overcast cloud deck at 4000 feet AGL
Weather: automated observation with no human augmentation;
there may or may not be significant weather present at this time

METAR text: KAPC 050454Z AUTO 00000KT 10SM FEW016 SCT039 OVC110 12/11 A2994 RMK AO2 SLP131 T01170106
Conditions at: KAPC (NAPA , CA, US) observed 0454 UTC 05 December 2019
Temperature: 11.7°C (53°F)
Dewpoint: 10.6°C (51°F) [RH = 93%]
Pressure (altimeter): 29.94 inches Hg (1014.0 mb)
[Sea-level pressure: 1013.1 mb]
Winds: calm
Visibility: 10 or more miles (16+ km)
Ceiling: 11000 feet AGL
Clouds: few clouds at 1600 feet AGL
scattered clouds at 3900 feet AGL
overcast cloud deck at 11000 feet AGL
Weather: automated observation with no human augmentation;
there may or may not be significant weather present at this time

METAR text: KAPC 050450Z AUTO 11003KT 10SM SCT015 SCT039 OVC110 12/11 A2994 RMK AO2
Conditions at: KAPC (NAPA , CA, US) observed 0450 UTC 05 December 2019
Temperature: 12.0°C (54°F)
Dewpoint: 11.0°C (52°F) [RH = 94%]
Pressure (altimeter): 29.94 inches Hg (1014.0 mb)
Winds: from the ESE (110 degrees) at 3 MPH (3 knots; 1.5 m/s)
Visibility: 10 or more miles (16+ km)
Ceiling: 11000 feet AGL
Clouds: scattered clouds at 1500 feet AGL
scattered clouds at 3900 feet AGL
overcast cloud deck at 11000 feet AGL
Weather: automated observation with no human augmentation;
there may or may not be significant weather present at this time

METAR text: KAPC 050424Z AUTO 06004KT 10SM BKN015 OVC110 12/11 A2993 RMK AO2 T01170106
Conditions at: KAPC (NAPA , CA, US) observed 0424 UTC 05 December 2019
Temperature: 11.7°C (53°F)
Dewpoint: 10.6°C (51°F) [RH = 93%]
Pressure (altimeter): 29.93 inches Hg (1013.6 mb)
Winds: from the ENE (60 degrees) at 5 MPH (4 knots; 2.1 m/s)
Visibility: 10 or more miles (16+ km)
Ceiling: 1500 feet AGL
Clouds: broken clouds at 1500 feet AGL
overcast cloud deck at 11000 feet AGL
Weather: automated observation with no human augmentation;
there may or may not be significant weather present at this time

METAR text: KAPC 050354Z AUTO 00000KT 10SM OVC110 12/10 A2992 RMK AO2 SLP124 T01220100
Conditions at: KAPC (NAPA , CA, US) observed 0354 UTC 05 December 2019
Temperature: 12.2°C (54°F)
Dewpoint: 10.0°C (50°F) [RH = 86%]
Pressure (altimeter): 29.92 inches Hg (1013.3 mb)
[Sea-level pressure: 1012.4 mb]
Winds: calm
Visibility: 10 or more miles (16+ km)
Ceiling: 11000 feet AGL
Clouds: overcast cloud deck at 11000 feet AGL
Weather: automated observation with no human augmentation;
there may or may not be significant weather present at this time

METAR text: KAPC 050254Z 07005KT 10SM OVC110 13/11 A2990 RMK AO2 SLP116 T01280106 51018
Conditions at: KAPC (NAPA , CA, US) observed 0254 UTC 05 December 2019
Temperature: 12.8°C (55°F)
Dewpoint: 10.6°C (51°F) [RH = 86%]
Pressure (altimeter): 29.90 inches Hg (1012.6 mb)
[Sea-level pressure: 1011.6 mb]
Winds: from the ENE (70 degrees) at 6 MPH (5 knots; 2.6 m/s)
Visibility: 10 or more miles (16+ km)
Ceiling: 11000 feet AGL
Clouds: overcast cloud deck at 11000 feet AGL
Weather: no significant weather observed at this time

METAR text: KAPC 050154Z 06004KT 10SM FEW010 BKN055 12/11 A2988 RMK AO2 SLP111 T01220111
Conditions at: KAPC (NAPA , CA, US) observed 0154 UTC 05 December 2019
Temperature: 12.2°C (54°F)
Dewpoint: 11.1°C (52°F) [RH = 93%]
Pressure (altimeter): 29.88 inches Hg (1011.9 mb)
[Sea-level pressure: 1011.1 mb]
Winds: from the ENE (60 degrees) at 5 MPH (4 knots; 2.1 m/s)
Visibility: 10 or more miles (16+ km)
Ceiling: 5500 feet AGL
Clouds: few clouds at 1000 feet AGL
broken clouds at 5500 feet AGL
Weather: no significant weather observed at this time

METAR text: KAPC 050054Z 09005KT 10SM FEW010 BKN055 13/11 A2987 RMK AO2 SLP106 T01280111
Conditions at: KAPC (NAPA , CA, US) observed 0054 UTC 05 December 2019
Temperature: 12.8°C (55°F)
Dewpoint: 11.1°C (52°F) [RH = 89%]
Pressure (altimeter): 29.87 inches Hg (1011.6 mb)
[Sea-level pressure: 1010.6 mb]
Winds: from the E (90 degrees) at 6 MPH (5 knots; 2.6 m/s)
Visibility: 10 or more miles (16+ km)
Ceiling: 5500 feet AGL
Clouds: few clouds at 1000 feet AGL
broken clouds at 5500 feet AGL
Weather: no significant weather observed at this time

METAR text: KAPC 042354Z 08011KT 10SM FEW010 BKN055 BKN070 13/11 A2985 RMK AO2 SLP098 60007 T01330111 10139 20122 53003
Conditions at: KAPC (NAPA , CA, US) observed 2354 UTC 04 December 2019
Temperature: 13.3°C (56°F)
Dewpoint: 11.1°C (52°F) [RH = 87%]
Pressure (altimeter): 29.85 inches Hg (1010.9 mb)
[Sea-level pressure: 1009.8 mb]
Winds: from the E (80 degrees) at 13 MPH (11 knots; 5.7 m/s)
Visibility: 10 or more miles (16+ km)
Ceiling: 5500 feet AGL
Clouds: few clouds at 1000 feet AGL
broken clouds at 5500 feet AGL
broken clouds at 7000 feet AGL
Weather: no significant weather observed at this time

METAR text: KAPC 042256Z 07007KT 10SM FEW010 BKN055 BKN070 13/11 A2983 RMK AO2 T01330111
Conditions at: KAPC (NAPA , CA, US) observed 2256 UTC 04 December 2019
Temperature: 13.3°C (56°F)
Dewpoint: 11.1°C (52°F) [RH = 87%]
Pressure (altimeter): 29.83 inches Hg (1010.2 mb)
Winds: from the ENE (70 degrees) at 8 MPH (7 knots; 3.6 m/s)
Visibility: 10 or more miles (16+ km)
Ceiling: 5500 feet AGL
Clouds: few clouds at 1000 feet AGL
broken clouds at 5500 feet AGL
broken clouds at 7000 feet AGL
Weather: no significant weather observed at this time

METAR text: KAPC 042254Z 07005KT 10SM BKN017 BKN055 OVC065 13/11 A2983 RMK AO2 RAE27 SLP093 P0000 T01330111
Conditions at: KAPC (NAPA , CA, US) observed 2254 UTC 04 December 2019
Temperature: 13.3°C (56°F)
Dewpoint: 11.1°C (52°F) [RH = 87%]
Pressure (altimeter): 29.83 inches Hg (1010.2 mb)
[Sea-level pressure: 1009.3 mb]
Winds: from the ENE (70 degrees) at 6 MPH (5 knots; 2.6 m/s)
Visibility: 10 or more miles (16+ km)
Ceiling: 1700 feet AGL
Clouds: broken clouds at 1700 feet AGL
broken clouds at 5500 feet AGL
overcast cloud deck at 6500 feet AGL
Weather: no significant weather observed at this time

METAR text: KAPC 042154Z 08006KT 10SM -RA BKN017 BKN065 OVC080 13/11 A2983 RMK AO2 SLP093 P0002 T01280111
Conditions at: KAPC (NAPA , CA, US) observed 2154 UTC 04 December 2019
Temperature: 12.8°C (55°F)
Dewpoint: 11.1°C (52°F) [RH = 89%]
Pressure (altimeter): 29.83 inches Hg (1010.2 mb)
[Sea-level pressure: 1009.3 mb]
Winds: from the E (80 degrees) at 7 MPH (6 knots; 3.1 m/s)
Visibility: 10 or more miles (16+ km)
Ceiling: 1700 feet AGL
Clouds: broken clouds at 1700 feet AGL
broken clouds at 6500 feet AGL
overcast cloud deck at 8000 feet AGL
Weather: -RA  (light rain)

METAR text: KAPC 042101Z 06006KT 10SM -RA SCT035 SCT050 OVC075 12/11 A2984 RMK AO2 P0000 T01220111
Conditions at: KAPC (NAPA , CA, US) observed 2101 UTC 04 December 2019
Temperature: 12.2°C (54°F)
Dewpoint: 11.1°C (52°F) [RH = 93%]
Pressure (altimeter): 29.84 inches Hg (1010.6 mb)
Winds: from the ENE (60 degrees) at 7 MPH (6 knots; 3.1 m/s)
Visibility: 10 or more miles (16+ km)
Ceiling: 7500 feet AGL
Clouds: scattered clouds at 3500 feet AGL
scattered clouds at 5000 feet AGL
overcast cloud deck at 7500 feet AGL
Weather: -RA  (light rain)

METAR text: KAPC 042054Z 07007KT 10SM -RA BKN010 OVC065 12/11 A2984 RMK AO2 SLP096 P0003 60005 T01220106 58014
Conditions at: KAPC (NAPA , CA, US) observed 2054 UTC 04 December 2019
Temperature: 12.2°C (54°F)
Dewpoint: 10.6°C (51°F) [RH = 90%]
Pressure (altimeter): 29.84 inches Hg (1010.6 mb)
[Sea-level pressure: 1009.6 mb]
Winds: from the ENE (70 degrees) at 8 MPH (7 knots; 3.6 m/s)
Visibility: 10 or more miles (16+ km)
Ceiling: 1000 feet AGL
Clouds: broken clouds at 1000 feet AGL
overcast cloud deck at 6500 feet AGL
Weather: -RA  (light rain)

METAR text: KAPC 041954Z 05010KT 10SM -RA BKN010 OVC070 13/11 A2986 RMK AO2 RAB10 SLP102 P0001 T01280106
Conditions at: KAPC (NAPA , CA, US) observed 1954 UTC 04 December 2019
Temperature: 12.8°C (55°F)
Dewpoint: 10.6°C (51°F) [RH = 86%]
Pressure (altimeter): 29.86 inches Hg (1011.3 mb)
[Sea-level pressure: 1010.2 mb]
Winds: from the NE (50 degrees) at 12 MPH (10 knots; 5.1 m/s)
Visibility: 10 or more miles (16+ km)
Ceiling: 1000 feet AGL
Clouds: broken clouds at 1000 feet AGL
overcast cloud deck at 7000 feet AGL
Weather: -RA  (light rain)

METAR text: KAPC 041932Z 05010KT 10SM -RA BKN010 OVC070 13/11 A2986 RMK AO2 RAB10 P0000 T01280106
Conditions at: KAPC (NAPA , CA, US) observed 1932 UTC 04 December 2019
Temperature: 12.8°C (55°F)
Dewpoint: 10.6°C (51°F) [RH = 86%]
Pressure (altimeter): 29.86 inches Hg (1011.3 mb)
Winds: from the NE (50 degrees) at 12 MPH (10 knots; 5.1 m/s)
Visibility: 10 or more miles (16+ km)
Ceiling: 1000 feet AGL
Clouds: broken clouds at 1000 feet AGL
overcast cloud deck at 7000 feet AGL
Weather: -RA  (light rain)

METAR text: KAPC 041854Z 05010KT 10SM OVC085 13/11 A2987 RMK AO2 RAE36 SLP104 P0001 T01280106
Conditions at: KAPC (NAPA , CA, US) observed 1854 UTC 04 December 2019
Temperature: 12.8°C (55°F)
Dewpoint: 10.6°C (51°F) [RH = 86%]
Pressure (altimeter): 29.87 inches Hg (1011.6 mb)
[Sea-level pressure: 1010.4 mb]
Winds: from the NE (50 degrees) at 12 MPH (10 knots; 5.1 m/s)
Visibility: 10 or more miles (16+ km)
Ceiling: 8500 feet AGL
Clouds: overcast cloud deck at 8500 feet AGL
Weather: no significant weather observed at this time

METAR text: KAPC 041754Z 06006KT 10SM -RA SCT015 BKN031 OVC080 12/11 A2988 RMK AO2 SLP109 P0002 60014 T01220106 10122 20106 53008
Conditions at: KAPC (NAPA , CA, US) observed 1754 UTC 04 December 2019
Temperature: 12.2°C (54°F)
Dewpoint: 10.6°C (51°F) [RH = 90%]
Pressure (altimeter): 29.88 inches Hg (1011.9 mb)
[Sea-level pressure: 1010.9 mb]
Winds: from the ENE (60 degrees) at 7 MPH (6 knots; 3.1 m/s)
Visibility: 10 or more miles (16+ km)
Ceiling: 3100 feet AGL
Clouds: scattered clouds at 1500 feet AGL
broken clouds at 3100 feet AGL
overcast cloud deck at 8000 feet AGL
Weather: -RA  (light rain)

METAR text: KAPC 041654Z 04008KT 8SM -RA FEW011 SCT034 OVC060 12/10 A2986 RMK AO2 SLP104 P0004 T01170100
Conditions at: KAPC (NAPA , CA, US) observed 1654 UTC 04 December 2019
Temperature: 11.7°C (53°F)
Dewpoint: 10.0°C (50°F) [RH = 89%]
Pressure (altimeter): 29.86 inches Hg (1011.3 mb)
[Sea-level pressure: 1010.4 mb]
Winds: from the NE (40 degrees) at 9 MPH (8 knots; 4.1 m/s)
Visibility: 8 miles (13 km)
Ceiling: 6000 feet AGL
Clouds: few clouds at 1100 feet AGL
scattered clouds at 3400 feet AGL
overcast cloud deck at 6000 feet AGL
Weather: -RA  (light rain)

METAR text: KAPC 041622Z 05007KT 4SM -RA BR SCT014 OVC032 12/10 A2986 RMK AO2 P0002 T01170100
Conditions at: KAPC (NAPA , CA, US) observed 1622 UTC 04 December 2019
Temperature: 11.7°C (53°F)
Dewpoint: 10.0°C (50°F) [RH = 89%]
Pressure (altimeter): 29.86 inches Hg (1011.3 mb)
Winds: from the NE (50 degrees) at 8 MPH (7 knots; 3.6 m/s)
Visibility: 4 miles ( 6 km)
Ceiling: 3200 feet AGL
Clouds: scattered clouds at 1400 feet AGL
overcast cloud deck at 3200 feet AGL
Weather: -RA BR  (light rain, mist)

METAR text: KAPC 041554Z 05004KT 4SM -RA BR OVC028 12/10 A2986 RMK AO2 SLP102 P0004 T01170100
Conditions at: KAPC (NAPA , CA, US) observed 1554 UTC 04 December 2019
Temperature: 11.7°C (53°F)
Dewpoint: 10.0°C (50°F) [RH = 89%]
Pressure (altimeter): 29.86 inches Hg (1011.3 mb)
[Sea-level pressure: 1010.2 mb]
Winds: from the NE (50 degrees) at 5 MPH (4 knots; 2.1 m/s)
Visibility: 4 miles ( 6 km)
Ceiling: 2800 feet AGL
Clouds: overcast cloud deck at 2800 feet AGL
Weather: -RA BR  (light rain, mist)

METAR text: KAPC 041551Z 04005KT 4SM -RA BR BKN028 OVC033 12/10 A2985 RMK AO2 P0003
Conditions at: KAPC (NAPA , CA, US) observed 1551 UTC 04 December 2019
Temperature: 12.0°C (54°F)
Dewpoint: 10.0°C (50°F) [RH = 88%]
Pressure (altimeter): 29.85 inches Hg (1010.9 mb)
Winds: from the NE (40 degrees) at 6 MPH (5 knots; 2.6 m/s)
Visibility: 4 miles ( 6 km)
Ceiling: 2800 feet AGL
Clouds: broken clouds at 2800 feet AGL
overcast cloud deck at 3300 feet AGL
Weather: -RA BR  (light rain, mist)

METAR text: KAPC 041454Z AUTO 04010KT 10SM -RA FEW012 OVC037 12/10 A2985 RMK AO2 SLP098 P0001 60004 T01170100 56005
Conditions at: KAPC (NAPA , CA, US) observed 1454 UTC 04 December 2019
Temperature: 11.7°C (53°F)
Dewpoint: 10.0°C (50°F) [RH = 89%]
Pressure (altimeter): 29.85 inches Hg (1010.9 mb)
[Sea-level pressure: 1009.8 mb]
Winds: from the NE (40 degrees) at 12 MPH (10 knots; 5.1 m/s)
Visibility: 10 or more miles (16+ km)
Ceiling: 3700 feet AGL
Clouds: few clouds at 1200 feet AGL
overcast cloud deck at 3700 feet AGL
Weather: -RA  (light rain)

METAR text: KAPC 041409Z AUTO 05012KT 10SM -RA SCT013 OVC041 12/09 A2984 RMK AO2 P0000 T01170094
Conditions at: KAPC (NAPA , CA, US) observed 1409 UTC 04 December 2019
Temperature: 11.7°C (53°F)
Dewpoint: 9.4°C (49°F) [RH = 86%]
Pressure (altimeter): 29.84 inches Hg (1010.6 mb)
Winds: from the NE (50 degrees) at 14 MPH (12 knots; 6.2 m/s)
Visibility: 10 or more miles (16+ km)
Ceiling: 4100 feet AGL
Clouds: scattered clouds at 1300 feet AGL
overcast cloud deck at 4100 feet AGL
Weather: -RA  (light rain)

METAR text: KAPC 041354Z AUTO 05010G18KT 10SM -RA BKN011 OVC043 12/09 A2985 RMK AO2 SLP098 P0001 T01170094
Conditions at: KAPC (NAPA , CA, US) observed 1354 UTC 04 December 2019
Temperature: 11.7°C (53°F)
Dewpoint: 9.4°C (49°F) [RH = 86%]
Pressure (altimeter): 29.85 inches Hg (1010.9 mb)
[Sea-level pressure: 1009.8 mb]
Winds: from the NE (50 degrees) at 12 MPH (10 knots; 5.1 m/s)
gusting to 21 MPH (18 knots; 9.3 m/s)
Visibility: 10 or more miles (16+ km)
Ceiling: 1100 feet AGL
Clouds: broken clouds at 1100 feet AGL
overcast cloud deck at 4300 feet AGL
Weather: -RA  (light rain)

METAR text: KAPC 041345Z AUTO VRB05KT 9SM -RA BKN011 OVC045 12/09 A2985 RMK AO2 P0001 T01170094
Conditions at: KAPC (NAPA , CA, US) observed 1345 UTC 04 December 2019
Temperature: 11.7°C (53°F)
Dewpoint: 9.4°C (49°F) [RH = 86%]
Pressure (altimeter): 29.85 inches Hg (1010.9 mb)
Winds: variable direction winds at 6 MPH (5 knots; 2.6 m/s)
Visibility: 9 miles (14 km)
Ceiling: 1100 feet AGL
Clouds: broken clouds at 1100 feet AGL
overcast cloud deck at 4500 feet AGL
Weather: -RA  (light rain)